createdAt,value
2018-07-02T00:00:35.632Z,0.00
2018-07-02T00:01:35.847Z,0.00
2018-07-02T00:02:36.041Z,0.00
2018-07-02T00:03:36.228Z,0.00
2018-07-02T00:04:36.423Z,0.00
2018-07-02T00:05:36.637Z,0.00
2018-07-02T00:06:36.824Z,0.00
2018-07-02T00:07:37.035Z,0.00
2018-07-02T00:08:37.222Z,0.00
2018-07-02T00:09:37.423Z,0.00
2018-07-02T00:10:37.619Z,0.00
2018-07-02T00:11:37.815Z,0.00
2018-07-02T00:12:38.012Z,0.00
2018-07-02T00:13:38.194Z,0.00
2018-07-02T00:14:38.399Z,0.00
2018-07-02T00:15:38.587Z,0.00
2018-07-02T00:16:38.793Z,0.00
2018-07-02T00:17:38.991Z,0.00
2018-07-02T00:18:39.193Z,0.00
2018-07-02T00:19:39.406Z,0.00
2018-07-02T00:20:39.618Z,0.00
2018-07-02T00:21:39.797Z,0.00
2018-07-02T00:22:39.986Z,0.00
2018-07-02T00:23:40.194Z,0.00
2018-07-02T00:24:40.402Z,0.00
2018-07-02T00:25:40.591Z,0.00
2018-07-02T00:26:40.796Z,0.00
2018-07-02T00:27:41.002Z,0.00
2018-07-02T00:28:41.210Z,0.00
2018-07-02T00:29:41.421Z,0.00
2018-07-02T00:30:41.614Z,0.00
2018-07-02T00:31:41.879Z,0.00
2018-07-02T00:32:42.046Z,0.00
2018-07-02T00:33:42.241Z,0.00
2018-07-02T00:34:42.426Z,0.00
2018-07-02T00:35:42.610Z,0.00
2018-07-02T00:36:42.808Z,0.00
2018-07-02T00:37:43.004Z,0.00
2018-07-02T00:38:43.246Z,0.00
2018-07-02T00:39:43.449Z,0.00
2018-07-02T00:40:43.638Z,0.00
2018-07-02T00:41:43.827Z,0.00
2018-07-02T00:42:44.034Z,0.00
2018-07-02T00:43:44.219Z,0.00
2018-07-02T00:44:44.434Z,0.00
2018-07-02T00:45:44.637Z,0.00
2018-07-02T00:46:44.877Z,0.00
2018-07-02T00:47:45.019Z,0.00
2018-07-02T00:48:45.212Z,0.00
2018-07-02T00:49:45.416Z,0.00
2018-07-02T00:50:45.628Z,0.00
2018-07-02T00:51:45.832Z,0.00
2018-07-02T00:52:46.038Z,0.00
2018-07-02T00:53:46.232Z,0.00
2018-07-02T00:54:46.417Z,0.00
2018-07-02T00:55:46.609Z,0.00
2018-07-02T00:56:46.825Z,0.00
2018-07-02T00:57:47.029Z,0.00
2018-07-02T00:58:47.224Z,0.00
2018-07-02T00:59:47.415Z,0.00
2018-07-02T01:00:47.594Z,0.00
2018-07-02T01:01:47.781Z,0.00
2018-07-02T01:02:47.987Z,0.00
2018-07-02T01:03:48.193Z,0.00
2018-07-02T01:04:48.379Z,0.00
2018-07-02T01:05:48.569Z,0.00
2018-07-02T01:06:48.779Z,0.00
2018-07-02T01:07:48.964Z,0.00
2018-07-02T01:08:49.167Z,0.00
2018-07-02T01:09:49.370Z,0.00
2018-07-02T01:10:49.584Z,0.00
2018-07-02T01:11:49.773Z,0.00
2018-07-02T01:12:49.978Z,0.00
2018-07-02T01:13:50.182Z,0.00
2018-07-02T01:14:50.381Z,0.00
2018-07-02T01:15:50.593Z,0.00
2018-07-02T01:16:50.792Z,0.00
2018-07-02T01:17:51.000Z,0.00
2018-07-02T01:18:51.185Z,0.00
2018-07-02T01:19:51.396Z,0.00
2018-07-02T01:20:51.605Z,0.00
2018-07-02T01:21:51.816Z,0.00
2018-07-02T01:22:52.021Z,0.00
2018-07-02T01:23:52.205Z,0.00
2018-07-02T01:24:52.394Z,0.00
2018-07-02T01:25:52.613Z,0.00
2018-07-02T01:26:52.810Z,0.00
2018-07-02T01:27:53.024Z,0.00
2018-07-02T01:28:53.240Z,0.00
2018-07-02T01:29:53.426Z,0.00
2018-07-02T01:30:53.628Z,0.00
2018-07-02T01:31:53.813Z,0.00
2018-07-02T01:32:54.009Z,0.00
2018-07-02T01:33:54.194Z,0.00
2018-07-02T01:34:54.394Z,0.00
2018-07-02T01:35:54.581Z,0.00
2018-07-02T01:36:54.777Z,0.00
2018-07-02T01:37:54.985Z,0.00
2018-07-02T01:38:55.175Z,0.00
2018-07-02T01:39:55.367Z,0.00
2018-07-02T01:40:55.555Z,0.00
2018-07-02T01:41:55.759Z,0.00
2018-07-02T01:42:55.959Z,0.00
2018-07-02T01:43:56.144Z,0.00
2018-07-02T01:44:56.354Z,0.00
2018-07-02T01:45:56.554Z,0.00
2018-07-02T01:46:56.760Z,0.00
2018-07-02T01:47:56.947Z,0.00
2018-07-02T01:48:57.156Z,0.00
2018-07-02T01:49:57.345Z,0.00
2018-07-02T01:50:57.535Z,0.00
2018-07-02T01:51:57.726Z,0.00
2018-07-02T01:52:57.923Z,0.00
2018-07-02T01:53:58.127Z,0.00
2018-07-02T01:54:58.305Z,0.00
2018-07-02T01:55:58.494Z,0.00
2018-07-02T01:56:58.717Z,0.00
2018-07-02T01:57:58.894Z,0.00
2018-07-02T01:58:59.092Z,0.00
2018-07-02T01:59:59.274Z,0.00
2018-07-02T02:00:59.485Z,0.00
2018-07-02T02:01:59.683Z,0.00
2018-07-02T02:02:59.852Z,0.00
2018-07-02T02:04:00.067Z,0.00
2018-07-02T02:05:00.255Z,0.00
2018-07-02T02:06:00.448Z,0.00
2018-07-02T02:07:00.634Z,0.00
2018-07-02T02:08:00.824Z,0.00
2018-07-02T02:09:01.039Z,0.00
2018-07-02T02:10:01.230Z,0.00
2018-07-02T02:11:01.425Z,0.00
2018-07-02T02:12:01.634Z,0.00
2018-07-02T02:13:01.826Z,0.00
2018-07-02T02:14:02.037Z,0.00
2018-07-02T02:15:02.218Z,0.00
2018-07-02T02:16:02.406Z,0.00
2018-07-02T02:17:02.609Z,0.00
2018-07-02T02:18:02.788Z,0.00
2018-07-02T02:19:02.972Z,0.00
2018-07-02T02:20:03.179Z,0.00
2018-07-02T02:21:03.392Z,0.00
2018-07-02T02:22:03.569Z,0.00
2018-07-02T02:23:03.773Z,0.00
2018-07-02T02:24:03.952Z,0.00
2018-07-02T02:25:04.159Z,4.00
2018-07-02T02:26:04.345Z,4.00
2018-07-02T02:27:04.535Z,4.00
2018-07-02T02:28:04.745Z,0.00
2018-07-02T02:29:04.925Z,0.00
2018-07-02T02:30:05.114Z,4.00
2018-07-02T02:31:05.309Z,4.00
2018-07-02T02:32:05.495Z,4.00
2018-07-02T02:33:05.686Z,4.00
2018-07-02T02:34:05.863Z,4.00
2018-07-02T02:35:06.058Z,8.00
2018-07-02T02:36:06.257Z,8.00
2018-07-02T02:37:06.473Z,8.00
2018-07-02T02:38:06.658Z,8.00
2018-07-02T02:39:06.845Z,8.00
2018-07-02T02:40:07.050Z,12.00
2018-07-02T02:41:07.240Z,12.00
2018-07-02T02:42:07.426Z,16.00
2018-07-02T02:43:07.650Z,16.00
2018-07-02T02:44:07.843Z,16.00
2018-07-02T02:45:08.028Z,20.00
2018-07-02T02:46:08.212Z,24.00
2018-07-02T02:47:08.406Z,24.00
2018-07-02T02:48:08.617Z,28.00
2018-07-02T02:49:08.807Z,32.00
2018-07-02T02:50:09.002Z,36.00
2018-07-02T02:51:09.198Z,44.00
2018-07-02T02:52:09.386Z,48.00
2018-07-02T02:53:09.593Z,56.00
2018-07-02T02:54:09.782Z,60.00
2018-07-02T02:55:09.965Z,68.00
2018-07-02T02:56:10.175Z,76.00
2018-07-02T02:57:10.357Z,84.00
2018-07-02T02:58:10.566Z,92.00
2018-07-02T02:59:10.752Z,104.00
2018-07-02T03:00:10.935Z,116.00
2018-07-02T03:01:11.125Z,128.00
2018-07-02T03:02:11.326Z,144.00
2018-07-02T03:03:11.537Z,156.00
2018-07-02T03:04:11.739Z,168.00
2018-07-02T03:05:11.930Z,188.00
2018-07-02T03:06:12.116Z,204.00
2018-07-02T03:07:12.328Z,228.00
2018-07-02T03:08:12.523Z,244.00
2018-07-02T03:09:12.724Z,268.00
2018-07-02T03:10:12.932Z,292.00
2018-07-02T03:11:13.128Z,312.00
2018-07-02T03:12:13.312Z,340.00
2018-07-02T03:13:13.525Z,368.00
2018-07-02T03:14:13.737Z,400.00
2018-07-02T03:15:13.921Z,428.00
2018-07-02T03:16:14.126Z,460.00
2018-07-02T03:17:14.324Z,492.00
2018-07-02T03:18:14.514Z,524.00
2018-07-02T03:19:14.716Z,560.00
2018-07-02T03:20:14.936Z,596.00
2018-07-02T03:21:15.106Z,636.00
2018-07-02T03:22:15.293Z,676.00
2018-07-02T03:23:15.480Z,712.00
2018-07-02T03:24:15.680Z,752.00
2018-07-02T03:25:15.890Z,796.00
2018-07-02T03:26:16.079Z,836.00
2018-07-02T03:27:16.278Z,880.00
2018-07-02T03:28:16.475Z,924.00
2018-07-02T03:29:16.682Z,968.00
2018-07-02T03:30:16.892Z,1012.00
2018-07-02T03:31:17.090Z,1056.00
2018-07-02T03:32:17.284Z,1100.00
2018-07-02T03:33:17.486Z,1148.00
2018-07-02T03:34:17.683Z,1192.00
2018-07-02T03:35:17.891Z,1240.00
2018-07-02T03:36:18.105Z,1288.00
2018-07-02T03:37:18.297Z,1336.00
2018-07-02T03:38:18.528Z,1384.00
2018-07-02T03:39:18.724Z,1428.00
2018-07-02T03:40:18.910Z,1476.00
2018-07-02T03:41:19.098Z,1524.00
2018-07-02T03:42:19.297Z,1572.00
2018-07-02T03:43:19.486Z,1616.00
2018-07-02T03:44:19.679Z,1668.00
2018-07-02T03:45:19.864Z,1708.00
2018-07-02T03:46:20.062Z,1756.00
2018-07-02T03:47:20.269Z,1808.00
2018-07-02T03:48:20.453Z,1852.00
2018-07-02T03:49:20.651Z,1896.00
2018-07-02T03:50:20.845Z,1948.00
2018-07-02T03:51:21.018Z,1992.00
2018-07-02T03:52:21.215Z,2036.00
2018-07-02T03:53:21.410Z,2080.00
2018-07-02T03:54:21.614Z,2128.00
2018-07-02T03:55:21.835Z,2176.00
2018-07-02T03:56:22.045Z,2268.00
2018-07-02T03:57:22.229Z,2388.00
2018-07-02T03:58:22.433Z,2444.00
2018-07-02T03:59:22.626Z,2400.00
2018-07-02T04:00:22.825Z,2404.00
2018-07-02T04:01:23.044Z,2460.00
2018-07-02T04:02:23.213Z,2524.00
2018-07-02T04:03:23.405Z,2872.00
2018-07-02T04:04:23.605Z,3536.00
2018-07-02T04:05:23.806Z,3256.00
2018-07-02T04:06:24.002Z,3148.00
2018-07-02T04:07:24.187Z,3444.00
2018-07-02T04:08:24.391Z,3436.00
2018-07-02T04:09:24.596Z,4088.00
2018-07-02T04:10:24.874Z,4332.00
2018-07-02T04:11:24.952Z,3824.00
2018-07-02T04:12:25.137Z,4060.00
2018-07-02T04:13:25.348Z,5116.00
2018-07-02T04:14:25.534Z,4584.00
2018-07-02T04:15:25.728Z,5904.00
2018-07-02T04:16:25.936Z,9340.00
2018-07-02T04:17:26.121Z,10876.00
2018-07-02T04:18:26.319Z,12048.00
2018-07-02T04:19:26.523Z,13120.00
2018-07-02T04:20:26.723Z,13536.00
2018-07-02T04:21:26.906Z,14016.00
2018-07-02T04:22:27.106Z,14528.00
2018-07-02T04:23:27.311Z,15264.00
2018-07-02T04:24:27.537Z,15904.00
2018-07-02T04:25:27.746Z,16576.00
2018-07-02T04:26:27.959Z,16960.00
2018-07-02T04:27:28.136Z,16864.00
2018-07-02T04:28:28.346Z,17376.00
2018-07-02T04:29:28.539Z,17984.00
2018-07-02T04:30:28.742Z,18912.00
2018-07-02T04:31:28.955Z,19648.00
2018-07-02T04:32:29.142Z,20192.00
2018-07-02T04:33:29.333Z,20512.00
2018-07-02T04:34:29.516Z,20352.00
2018-07-02T04:35:29.711Z,19936.00
2018-07-02T04:36:29.916Z,19808.00
2018-07-02T04:37:30.097Z,19744.00
2018-07-02T04:38:30.310Z,19936.00
2018-07-02T04:39:30.504Z,20320.00
2018-07-02T04:40:30.714Z,20960.00
2018-07-02T04:41:30.913Z,21664.00
2018-07-02T04:42:31.197Z,22496.00
2018-07-02T04:43:31.288Z,23136.00
2018-07-02T04:44:31.479Z,24000.00
2018-07-02T04:45:31.667Z,24576.00
2018-07-02T04:46:31.877Z,25440.00
2018-07-02T04:47:32.083Z,26048.00
2018-07-02T04:48:32.299Z,26240.00
2018-07-02T04:49:32.500Z,26208.00
2018-07-02T04:50:32.711Z,26016.00
2018-07-02T04:51:32.928Z,25920.00
2018-07-02T04:52:33.111Z,26048.00
2018-07-02T04:53:33.430Z,26368.00
2018-07-02T04:54:33.509Z,26784.00
2018-07-02T04:55:33.720Z,27264.00
2018-07-02T04:56:33.936Z,27712.00
2018-07-02T04:57:34.139Z,28032.00
2018-07-02T04:58:34.358Z,28192.00
2018-07-02T04:59:34.585Z,28608.00
2018-07-02T05:00:34.778Z,29408.00
2018-07-02T05:01:34.976Z,30624.00
2018-07-02T05:02:35.170Z,31904.00
2018-07-02T05:03:35.380Z,32864.00
2018-07-02T05:04:35.608Z,33184.00
2018-07-02T05:05:35.807Z,32992.00
2018-07-02T05:06:36.030Z,32864.00
2018-07-02T05:07:36.233Z,32864.00
2018-07-02T05:08:36.442Z,33024.00
2018-07-02T05:09:36.635Z,33600.00
2018-07-02T05:10:36.826Z,34368.00
2018-07-02T05:11:37.078Z,35008.00
2018-07-02T05:12:37.166Z,35392.00
2018-07-02T05:13:37.367Z,35648.00
2018-07-02T05:14:37.565Z,35104.00
2018-07-02T05:15:37.780Z,34304.00
2018-07-02T05:16:37.971Z,34368.00
2018-07-02T05:17:38.185Z,34752.00
2018-07-02T05:18:38.402Z,35808.00
2018-07-02T05:19:38.612Z,36416.00
2018-07-02T05:20:38.809Z,36672.00
2018-07-02T05:21:39.016Z,36416.00
2018-07-02T05:22:39.222Z,36640.00
2018-07-02T05:23:39.438Z,37152.00
2018-07-02T05:24:39.632Z,38720.00
2018-07-02T05:25:39.831Z,40352.00
2018-07-02T05:26:40.026Z,42144.00
2018-07-02T05:27:40.220Z,42624.00
2018-07-02T05:28:40.424Z,42592.00
2018-07-02T05:29:40.627Z,41952.00
2018-07-02T05:30:40.832Z,41024.00
2018-07-02T05:31:41.046Z,40800.00
2018-07-02T05:32:41.247Z,41344.00
2018-07-02T05:33:41.467Z,41344.00
2018-07-02T05:34:41.659Z,41696.00
2018-07-02T05:35:41.875Z,42208.00
2018-07-02T05:36:42.092Z,42720.00
2018-07-02T05:37:42.285Z,43968.00
2018-07-02T05:38:42.500Z,45504.00
2018-07-02T05:39:42.678Z,46560.00
2018-07-02T05:40:42.891Z,47136.00
2018-07-02T05:41:43.092Z,47680.00
2018-07-02T05:42:43.305Z,47680.00
2018-07-02T05:43:43.501Z,48128.00
2018-07-02T05:44:43.696Z,49216.00
2018-07-02T05:45:43.906Z,50304.00
2018-07-02T05:46:44.110Z,50592.00
2018-07-02T05:47:44.303Z,50432.00
2018-07-02T05:48:44.519Z,50208.00
2018-07-02T05:49:44.729Z,50752.00
2018-07-02T05:50:44.933Z,52416.00
2018-07-02T05:51:45.125Z,55520.00
2018-07-02T05:52:45.320Z,58656.00
2018-07-02T05:53:45.510Z,60160.00
2018-07-02T05:54:45.707Z,59744.00
2018-07-02T05:55:45.922Z,58368.00
2018-07-02T05:56:46.121Z,55936.00
2018-07-02T05:57:46.336Z,55040.00
2018-07-02T05:58:46.557Z,55104.00
2018-07-02T05:59:46.768Z,57376.00
2018-07-02T06:00:46.993Z,59968.00
2018-07-02T06:01:47.193Z,61696.00
2018-07-02T06:02:47.412Z,61600.00
2018-07-02T06:03:47.626Z,58784.00
2018-07-02T06:04:47.811Z,55520.00
2018-07-02T06:05:48.013Z,52672.00
2018-07-02T06:06:48.227Z,52224.00
2018-07-02T06:07:48.559Z,53536.00
2018-07-02T06:08:48.666Z,56640.00
2018-07-02T06:09:48.856Z,59488.00
2018-07-02T06:10:49.077Z,60448.00
2018-07-02T06:11:49.294Z,59712.00
2018-07-02T06:12:49.501Z,58496.00
2018-07-02T06:13:49.716Z,58176.00
2018-07-02T06:14:49.917Z,59232.00
2018-07-02T06:15:50.115Z,61312.00
2018-07-02T06:16:50.340Z,63424.00
2018-07-02T06:17:50.560Z,65120.00
2018-07-02T06:18:50.773Z,65152.00
2018-07-02T06:19:50.975Z,65120.00
2018-07-02T06:20:51.169Z,64032.00
2018-07-02T06:21:51.447Z,63200.00
2018-07-02T06:22:51.526Z,63072.00
2018-07-02T06:23:51.748Z,63328.00
2018-07-02T06:24:52.069Z,64384.00
2018-07-02T06:25:52.162Z,65408.00
2018-07-02T06:26:52.379Z,65856.00
2018-07-02T06:27:52.582Z,65216.00
2018-07-02T06:28:52.772Z,64768.00
2018-07-02T06:29:52.985Z,63648.00
2018-07-02T06:30:53.199Z,63456.00
2018-07-02T06:31:53.412Z,63552.00
2018-07-02T06:32:53.620Z,63584.00
2018-07-02T06:33:53.820Z,63744.00
2018-07-02T06:34:54.019Z,63840.00
2018-07-02T06:35:54.218Z,63680.00
2018-07-02T06:36:54.414Z,63264.00
2018-07-02T06:37:54.621Z,63904.00
2018-07-02T06:38:54.839Z,63712.00
2018-07-02T06:39:55.067Z,63808.00
2018-07-02T06:40:55.263Z,63680.00
2018-07-02T06:41:55.544Z,63616.00
2018-07-02T06:42:55.702Z,63840.00
2018-07-02T06:43:55.920Z,64160.00
2018-07-02T06:44:56.116Z,64928.00
2018-07-02T06:45:56.324Z,65600.00
2018-07-02T06:46:56.541Z,66208.00
2018-07-02T06:47:56.766Z,66080.00
2018-07-02T06:48:56.988Z,65984.00
2018-07-02T06:49:57.206Z,65952.00
2018-07-02T06:50:57.399Z,66432.00
2018-07-02T06:51:57.610Z,67264.00
2018-07-02T06:52:57.819Z,68032.00
2018-07-02T06:53:58.031Z,68288.00
2018-07-02T06:54:58.253Z,68000.00
2018-07-02T06:55:58.479Z,67392.00
2018-07-02T06:56:58.684Z,66336.00
2018-07-02T06:57:58.877Z,65312.00
2018-07-02T06:58:59.079Z,64384.00
2018-07-02T06:59:59.287Z,64288.00
2018-07-02T07:00:59.508Z,64096.00
2018-07-02T07:01:59.714Z,64416.00
2018-07-02T07:02:59.903Z,65024.00
2018-07-02T07:04:00.121Z,64768.00
2018-07-02T07:06:31.956Z,63808.00
2018-07-02T07:07:32.165Z,64448.00
2018-07-02T07:08:32.369Z,64640.00
2018-07-02T07:09:32.567Z,65184.00
2018-07-02T07:10:32.766Z,66400.00
2018-07-02T07:11:32.972Z,66592.00
2018-07-02T07:12:33.186Z,66880.00
2018-07-02T07:13:33.383Z,67360.00
2018-07-02T07:14:33.604Z,66624.00
2018-07-02T07:15:33.879Z,67456.00
2018-07-02T07:16:34.047Z,67584.00
2018-07-02T07:17:34.270Z,68000.00
2018-07-02T07:18:34.472Z,68192.00
2018-07-02T07:19:34.681Z,68064.00
2018-07-02T07:20:34.907Z,67616.00
2018-07-02T07:21:35.123Z,67168.00
2018-07-02T07:22:35.334Z,67360.00
2018-07-02T07:23:35.604Z,67456.00
2018-07-02T07:24:35.705Z,67616.00
2018-07-02T07:25:35.954Z,67296.00
2018-07-02T07:26:36.138Z,67264.00
2018-07-02T07:27:36.408Z,66976.00
2018-07-02T07:28:36.559Z,66144.00
2018-07-02T07:29:36.761Z,67744.00
2018-07-02T07:30:37.019Z,69344.00
2018-07-02T07:31:37.222Z,70880.00
2018-07-02T07:32:37.430Z,72064.00
2018-07-02T07:33:37.650Z,73088.00
2018-07-02T07:34:37.840Z,71488.00
2018-07-02T07:35:38.059Z,71200.00
2018-07-02T07:36:38.263Z,71072.00
2018-07-02T07:37:38.467Z,72544.00
2018-07-02T07:38:38.694Z,73696.00
2018-07-02T07:39:38.923Z,75136.00
2018-07-02T07:40:39.153Z,75456.00
2018-07-02T07:41:39.344Z,75424.00
2018-07-02T07:42:39.570Z,74976.00
2018-07-02T07:43:39.776Z,74368.00
2018-07-02T07:44:39.996Z,73600.00
2018-07-02T07:45:40.194Z,73472.00
2018-07-02T07:46:40.414Z,73056.00
2018-07-02T07:47:40.633Z,72288.00
2018-07-02T07:48:40.864Z,72128.00
2018-07-02T07:49:41.076Z,71136.00
2018-07-02T07:50:41.291Z,70720.00
2018-07-02T07:51:41.489Z,70688.00
2018-07-02T07:52:41.688Z,70496.00
2018-07-02T07:53:41.912Z,70496.00
2018-07-02T07:54:42.111Z,71168.00
2018-07-02T07:55:42.311Z,72096.00
2018-07-02T07:56:42.513Z,72512.00
2018-07-02T07:57:42.727Z,72704.00
2018-07-02T07:58:42.953Z,72960.00
2018-07-02T07:59:43.171Z,73568.00
2018-07-02T08:00:43.385Z,73504.00
2018-07-02T08:01:43.606Z,74176.00
2018-07-02T08:02:43.826Z,74592.00
2018-07-02T08:03:44.059Z,74816.00
2018-07-02T08:04:44.238Z,74848.00
2018-07-02T08:05:44.443Z,74688.00
2018-07-02T08:06:44.647Z,74304.00
2018-07-02T08:07:44.868Z,74432.00
2018-07-02T08:08:45.063Z,74336.00
2018-07-02T08:11:17.477Z,74592.00
2018-07-02T08:12:17.163Z,74912.00
2018-07-02T08:13:17.367Z,74496.00
2018-07-02T08:14:17.576Z,74400.00
2018-07-02T08:15:17.804Z,75040.00
2018-07-02T08:16:18.006Z,75840.00
2018-07-02T08:17:18.225Z,76192.00
2018-07-02T08:18:18.447Z,77760.00
2018-07-02T08:20:50.585Z,78752.00
2018-07-02T08:21:50.774Z,79168.00
2018-07-02T08:22:50.975Z,79520.00
2018-07-02T08:23:51.234Z,79328.00
2018-07-02T08:24:51.460Z,78816.00
2018-07-02T08:25:51.664Z,78784.00
2018-07-02T08:26:51.873Z,78560.00
2018-07-02T08:27:52.073Z,78368.00
2018-07-02T08:28:52.299Z,77760.00
2018-07-02T08:29:52.518Z,77376.00
2018-07-02T08:30:52.740Z,76864.00
2018-07-02T08:31:52.938Z,76000.00
2018-07-02T08:32:53.149Z,75584.00
2018-07-02T08:33:53.340Z,75072.00
2018-07-02T08:34:53.537Z,74688.00
2018-07-02T08:35:53.756Z,75040.00
2018-07-02T08:36:53.980Z,75328.00
2018-07-02T08:37:54.179Z,76000.00
2018-07-02T08:38:54.374Z,75648.00
2018-07-02T08:39:54.597Z,74944.00
2018-07-02T08:40:54.800Z,75616.00
2018-07-02T08:41:55.024Z,74912.00
2018-07-02T08:44:27.199Z,72992.00
2018-07-02T08:45:27.382Z,73344.00
2018-07-02T08:46:27.594Z,73760.00
2018-07-02T08:47:27.791Z,75232.00
2018-07-02T08:48:28.029Z,75616.00
2018-07-02T08:49:28.246Z,74912.00
2018-07-02T08:50:28.448Z,73344.00
2018-07-02T08:51:28.687Z,72256.00
2018-07-02T08:52:28.905Z,70560.00
2018-07-02T08:53:29.113Z,69760.00
2018-07-02T08:54:29.346Z,69760.00
2018-07-02T08:55:29.568Z,70784.00
2018-07-02T08:56:29.789Z,70656.00
2018-07-02T08:57:30.021Z,70752.00
2018-07-02T08:58:30.251Z,70080.00
2018-07-02T08:59:30.445Z,69984.00
2018-07-02T09:00:30.645Z,70368.00
2018-07-02T09:01:30.859Z,70144.00
2018-07-02T09:02:31.087Z,71520.00
2018-07-02T09:03:31.318Z,75040.00
2018-07-02T09:04:31.532Z,76960.00
2018-07-02T09:05:31.734Z,78624.00
2018-07-02T09:06:31.952Z,80576.00
2018-07-02T09:07:32.155Z,80256.00
2018-07-02T09:08:32.361Z,78880.00
2018-07-02T09:09:32.583Z,77536.00
2018-07-02T09:10:32.812Z,75552.00
2018-07-02T09:11:33.036Z,74432.00
2018-07-02T09:14:05.191Z,72768.00
2018-07-02T09:15:05.376Z,72192.00
2018-07-02T09:16:05.595Z,72320.00
2018-07-02T09:17:05.813Z,71936.00
2018-07-02T09:18:06.010Z,72288.00
2018-07-02T09:19:06.224Z,72512.00
2018-07-02T09:20:06.443Z,72672.00
2018-07-02T09:21:06.695Z,74080.00
2018-07-02T09:22:06.883Z,73984.00
2018-07-02T09:23:07.113Z,72576.00
2018-07-02T09:24:07.318Z,71584.00
2018-07-02T09:25:07.527Z,69056.00
2018-07-02T09:26:07.722Z,66752.00
2018-07-02T09:27:07.924Z,65024.00
2018-07-02T09:28:08.137Z,65952.00
2018-07-02T09:29:08.344Z,67136.00
2018-07-02T09:30:08.763Z,69248.00
2018-07-02T09:31:08.789Z,71232.00
2018-07-02T09:32:09.014Z,72768.00
2018-07-02T09:33:09.224Z,74016.00
2018-07-02T09:34:09.447Z,73952.00
2018-07-02T09:35:09.665Z,74208.00
2018-07-02T09:36:09.893Z,73568.00
2018-07-02T09:37:10.120Z,72512.00
2018-07-02T09:39:41.971Z,70720.00
2018-07-02T09:40:42.158Z,70272.00
2018-07-02T09:43:14.309Z,69120.00
2018-07-02T09:44:14.508Z,69824.00
2018-07-02T09:45:14.788Z,70464.00
2018-07-02T09:46:14.955Z,70816.00
2018-07-02T09:47:15.177Z,70368.00
2018-07-02T09:48:15.369Z,69120.00
2018-07-02T09:49:15.578Z,68800.00
2018-07-02T09:50:15.774Z,69760.00
2018-07-02T09:51:15.972Z,69568.00
2018-07-02T09:52:16.173Z,69696.00
2018-07-02T09:53:16.388Z,69568.00
2018-07-02T09:54:16.589Z,69056.00
2018-07-02T09:55:16.809Z,68768.00
2018-07-02T09:57:48.963Z,68256.00
2018-07-02T09:58:49.155Z,68064.00
2018-07-02T09:59:49.364Z,67264.00
2018-07-02T10:00:49.582Z,67008.00
2018-07-02T10:01:49.794Z,65792.00
2018-07-02T10:02:50.000Z,65600.00
2018-07-02T10:03:50.202Z,65248.00
2018-07-02T10:04:50.425Z,64192.00
2018-07-02T10:05:50.637Z,64000.00
2018-07-02T10:06:50.863Z,63040.00
2018-07-02T10:07:51.081Z,61728.00
2018-07-02T10:08:51.305Z,60704.00
2018-07-02T10:09:51.494Z,59776.00
2018-07-02T10:10:51.704Z,59904.00
2018-07-02T10:11:51.902Z,60224.00
2018-07-02T10:12:52.098Z,60128.00
2018-07-02T10:15:24.522Z,58944.00
2018-07-02T10:16:24.450Z,58176.00
2018-07-02T10:17:24.696Z,56864.00
2018-07-02T10:18:24.925Z,56096.00
2018-07-02T10:19:25.132Z,56384.00
2018-07-02T10:20:25.408Z,56608.00
2018-07-02T10:21:25.545Z,56704.00
2018-07-02T10:22:25.756Z,57440.00
2018-07-02T10:23:25.997Z,56992.00
2018-07-02T10:24:26.164Z,55712.00
2018-07-02T10:25:26.366Z,44032.00
2018-07-02T10:26:26.600Z,27744.00
2018-07-02T10:27:26.815Z,14444.00
2018-07-02T10:28:27.107Z,11592.00
2018-07-02T10:29:27.277Z,11532.00
2018-07-02T10:30:27.424Z,11484.00
2018-07-02T10:31:27.835Z,11456.00
2018-07-02T10:32:27.847Z,11428.00
2018-07-02T10:33:28.043Z,11400.00
2018-07-02T10:34:28.264Z,11400.00
2018-07-02T10:35:28.470Z,11364.00
2018-07-02T10:36:28.673Z,11336.00
2018-07-02T10:37:28.907Z,11316.00
2018-07-02T10:38:29.093Z,11276.00
2018-07-02T10:39:29.327Z,11248.00
2018-07-02T10:40:29.533Z,11204.00
2018-07-02T10:41:29.767Z,11164.00
2018-07-02T10:42:29.957Z,11120.00
2018-07-02T10:43:30.180Z,11060.00
2018-07-02T10:44:30.400Z,10984.00
2018-07-02T10:45:30.614Z,10892.00
2018-07-02T10:46:30.820Z,10788.00
2018-07-02T10:47:31.024Z,10684.00
2018-07-02T10:48:31.277Z,10564.00
2018-07-02T10:49:31.454Z,10448.00
2018-07-02T10:50:31.647Z,10336.00
2018-07-02T10:51:31.846Z,10196.00
2018-07-02T10:52:32.046Z,10092.00
2018-07-02T10:53:32.248Z,9988.00
2018-07-02T10:54:32.468Z,9876.00
2018-07-02T10:55:32.731Z,9768.00
2018-07-02T10:56:32.885Z,9652.00
2018-07-02T10:57:33.100Z,9544.00
2018-07-02T10:58:33.427Z,9444.00
2018-07-02T10:59:33.506Z,9340.00
2018-07-02T11:00:33.718Z,9252.00
2018-07-02T11:01:33.919Z,9152.00
2018-07-02T11:02:34.137Z,9076.00
2018-07-02T11:03:34.332Z,8972.00
2018-07-02T11:04:34.537Z,8900.00
2018-07-02T11:05:34.728Z,8808.00
2018-07-02T11:06:34.938Z,8752.00
2018-07-02T11:07:35.163Z,8696.00
2018-07-02T11:08:35.383Z,8656.00
2018-07-02T11:09:35.599Z,8600.00
2018-07-02T11:10:35.788Z,8556.00
2018-07-02T11:11:35.983Z,8500.00
2018-07-02T11:12:36.205Z,8456.00
2018-07-02T11:13:36.423Z,8408.00
2018-07-02T11:14:36.616Z,8372.00
2018-07-02T11:15:36.811Z,8328.00
2018-07-02T11:16:37.022Z,8272.00
2018-07-02T11:17:37.217Z,8240.00
2018-07-02T11:18:37.424Z,8208.00
2018-07-02T11:19:37.654Z,8168.00
2018-07-02T11:20:37.862Z,8140.00
2018-07-02T11:21:38.078Z,8104.00
2018-07-02T11:22:38.269Z,8064.00
2018-07-02T11:23:38.502Z,8032.00
2018-07-02T11:24:38.694Z,8004.00
2018-07-02T11:25:38.904Z,7972.00
2018-07-02T11:26:39.113Z,7948.00
2018-07-02T11:27:39.305Z,7916.00
2018-07-02T11:28:39.581Z,7892.00
2018-07-02T11:29:39.642Z,7868.00
2018-07-02T11:30:39.848Z,7840.00
2018-07-02T11:31:40.066Z,7824.00
2018-07-02T11:32:40.265Z,7804.00
2018-07-02T11:33:40.476Z,7792.00
2018-07-02T11:34:40.675Z,7776.00
2018-07-02T11:35:40.894Z,7768.00
2018-07-02T11:36:41.093Z,7752.00
2018-07-02T11:37:41.285Z,7744.00
2018-07-02T11:38:41.481Z,7732.00
2018-07-02T11:39:41.690Z,7724.00
2018-07-02T11:40:41.900Z,7716.00
2018-07-02T11:41:42.103Z,7708.00
2018-07-02T11:42:42.299Z,7692.00
2018-07-02T11:43:42.514Z,7676.00
2018-07-02T11:44:42.727Z,7680.00
2018-07-02T11:45:42.936Z,7664.00
2018-07-02T11:46:43.152Z,7660.00
2018-07-02T11:47:43.370Z,7636.00
2018-07-02T11:48:43.584Z,7624.00
2018-07-02T11:49:43.799Z,7620.00
2018-07-02T11:50:43.995Z,7604.00
2018-07-02T11:51:44.198Z,7576.00
2018-07-02T11:52:44.395Z,7568.00
2018-07-02T11:53:44.584Z,7548.00
2018-07-02T11:54:44.804Z,7540.00
2018-07-02T11:55:44.997Z,7528.00
2018-07-02T11:56:45.195Z,7516.00
2018-07-02T11:57:45.498Z,7516.00
2018-07-02T11:58:45.585Z,7492.00
2018-07-02T11:59:45.806Z,7476.00
2018-07-02T12:00:46.021Z,7472.00
2018-07-02T12:01:46.260Z,7444.00
2018-07-02T12:02:46.434Z,7436.00
2018-07-02T12:03:46.663Z,7428.00
2018-07-02T12:04:46.876Z,7404.00
2018-07-02T12:05:47.085Z,7384.00
2018-07-02T12:06:47.294Z,7372.00
2018-07-02T12:07:47.513Z,7368.00
2018-07-02T12:08:47.722Z,7348.00
2018-07-02T12:09:47.912Z,7336.00
2018-07-02T12:10:48.123Z,7324.00
2018-07-02T12:11:48.329Z,7304.00
2018-07-02T12:14:20.209Z,7276.00
2018-07-02T12:15:20.395Z,7260.00
2018-07-02T12:16:20.604Z,7252.00
2018-07-02T12:17:20.823Z,7232.00
2018-07-02T12:18:21.019Z,7216.00
2018-07-02T12:20:53.177Z,7184.00
2018-07-02T12:21:53.366Z,7168.00
2018-07-02T12:22:53.564Z,7148.00
2018-07-02T12:23:53.765Z,7124.00
2018-07-02T12:24:53.982Z,7096.00
2018-07-02T12:25:54.175Z,7088.00
2018-07-02T12:26:54.397Z,7080.00
2018-07-02T12:27:54.616Z,7052.00
2018-07-02T12:28:54.822Z,7040.00
2018-07-02T12:29:55.016Z,7016.00